Terminal Aerodrome Forecast
Issued by NWS

Home | Current Version | Previous Version | Text Only | Print | Product List | Glossary On
Versions: 1 2 3 4 5 6 7 8 9 10 11 12 13 14 15 16
529
FTUS45 KRIW 301720
TAFJAC
TAF
KJAC 301720Z 3018/0118 36014KT P6SM SCT020 SCT035
     FM302000 35012KT P6SM VCSH BKN040
     FM010300 02011KT P6SM SCT040
      AMD LTD TO CLD VIS AND WIND=

USA.gov is the U.S. government's official web portal to all federal, state and local government web resources and services.